sensor_id;sensor_type;location;lat;lon;timestamp;P1;durP1;ratioP1;P2;durP2;ratioP2
32365;SDS011;18837;46.832;16.838;2024-03-23T00:56:05;6.20;;;5.60;;
32365;SDS011;18837;46.832;16.838;2024-03-23T00:58:31;6.73;;;5.77;;
32365;SDS011;18837;46.832;16.838;2024-03-23T01:00:57;6.57;;;5.87;;
32365;SDS011;18837;46.832;16.838;2024-03-23T01:03:23;6.63;;;5.77;;
32365;SDS011;18837;46.832;16.838;2024-03-23T01:05:48;7.00;;;6.07;;
32365;SDS011;18837;46.832;16.838;2024-03-23T01:08:14;7.53;;;5.73;;
32365;SDS011;18837;46.832;16.838;2024-03-23T01:10:40;8.00;;;6.17;;
32365;SDS011;18837;46.832;16.838;2024-03-23T01:13:06;6.87;;;5.90;;
32365;SDS011;18837;46.832;16.838;2024-03-23T01:15:31;7.40;;;5.87;;
32365;SDS011;18837;46.832;16.838;2024-03-23T01:17:57;6.70;;;5.63;;
32365;SDS011;18837;46.832;16.838;2024-03-23T01:20:23;6.03;;;5.43;;
32365;SDS011;18837;46.832;16.838;2024-03-23T01:22:48;7.27;;;5.63;;
32365;SDS011;18837;46.832;16.838;2024-03-23T01:25:14;7.63;;;6.00;;
32365;SDS011;18837;46.832;16.838;2024-03-23T01:27:40;6.60;;;5.93;;
32365;SDS011;18837;46.832;16.838;2024-03-23T01:30:06;6.83;;;6.13;;
32365;SDS011;18837;46.832;16.838;2024-03-23T01:32:32;6.87;;;5.90;;
32365;SDS011;18837;46.832;16.838;2024-03-23T01:34:58;7.30;;;5.97;;
32365;SDS011;18837;46.832;16.838;2024-03-23T01:37:24;7.97;;;5.93;;
32365;SDS011;18837;46.832;16.838;2024-03-23T01:39:49;7.80;;;6.33;;
32365;SDS011;18837;46.832;16.838;2024-03-23T01:42:16;6.40;;;5.73;;
32365;SDS011;18837;46.832;16.838;2024-03-23T01:44:41;6.43;;;5.83;;
32365;SDS011;18837;46.832;16.838;2024-03-23T01:47:07;6.57;;;5.87;;
32365;SDS011;18837;46.832;16.838;2024-03-23T01:49:33;7.77;;;6.70;;
32365;SDS011;18837;46.832;16.838;2024-03-23T01:51:59;6.70;;;6.00;;
32365;SDS011;18837;46.832;16.838;2024-03-23T01:54:25;7.37;;;6.57;;
32365;SDS011;18837;46.832;16.838;2024-03-23T01:56:51;7.43;;;6.03;;
32365;SDS011;18837;46.832;16.838;2024-03-23T01:59:17;7.60;;;6.17;;
32365;SDS011;18837;46.832;16.838;2024-03-23T02:01:42;7.43;;;6.20;;
32365;SDS011;18837;46.832;16.838;2024-03-23T02:04:08;7.07;;;6.33;;
32365;SDS011;18837;46.832;16.838;2024-03-23T02:06:34;10.47;;;6.90;;
32365;SDS011;18837;46.832;16.838;2024-03-23T02:09:00;6.90;;;5.80;;
32365;SDS011;18837;46.832;16.838;2024-03-23T02:11:26;8.67;;;6.67;;
32365;SDS011;18837;46.832;16.838;2024-03-23T02:13:52;7.73;;;6.50;;
32365;SDS011;18837;46.832;16.838;2024-03-23T02:16:18;6.97;;;6.27;;
32365;SDS011;18837;46.832;16.838;2024-03-23T02:18:43;6.70;;;5.97;;
32365;SDS011;18837;46.832;16.838;2024-03-23T02:21:09;7.83;;;6.40;;
32365;SDS011;18837;46.832;16.838;2024-03-23T02:23:35;7.67;;;6.53;;
32365;SDS011;18837;46.832;16.838;2024-03-23T02:26:00;7.37;;;6.50;;
32365;SDS011;18837;46.832;16.838;2024-03-23T02:28:26;6.70;;;6.00;;
32365;SDS011;18837;46.832;16.838;2024-03-23T02:30:52;7.07;;;5.83;;
32365;SDS011;18837;46.832;16.838;2024-03-23T02:33:18;6.90;;;6.20;;
32365;SDS011;18837;46.832;16.838;2024-03-23T02:35:44;7.10;;;6.40;;
32365;SDS011;18837;46.832;16.838;2024-03-23T02:38:10;8.10;;;6.67;;
32365;SDS011;18837;46.832;16.838;2024-03-23T02:40:36;7.50;;;6.70;;
32365;SDS011;18837;46.832;16.838;2024-03-23T02:43:02;7.33;;;6.47;;
32365;SDS011;18837;46.832;16.838;2024-03-23T02:45:28;8.07;;;7.27;;
32365;SDS011;18837;46.832;16.838;2024-03-23T02:47:54;7.73;;;6.27;;
32365;SDS011;18837;46.832;16.838;2024-03-23T02:50:20;7.27;;;6.47;;
32365;SDS011;18837;46.832;16.838;2024-03-23T02:52:46;7.37;;;6.47;;
32365;SDS011;18837;46.832;16.838;2024-03-23T02:55:12;9.10;;;6.47;;
32365;SDS011;18837;46.832;16.838;2024-03-23T02:57:39;6.67;;;6.07;;
32365;SDS011;18837;46.832;16.838;2024-03-23T03:00:06;9.37;;;6.47;;
32365;SDS011;18837;46.832;16.838;2024-03-23T03:02:32;6.87;;;6.17;;
32365;SDS011;18837;46.832;16.838;2024-03-23T03:04:58;7.27;;;6.50;;
32365;SDS011;18837;46.832;16.838;2024-03-23T03:07:24;7.73;;;6.83;;
32365;SDS011;18837;46.832;16.838;2024-03-23T03:09:50;6.70;;;6.03;;
32365;SDS011;18837;46.832;16.838;2024-03-23T03:12:16;7.13;;;6.13;;
32365;SDS011;18837;46.832;16.838;2024-03-23T03:14:42;7.57;;;6.77;;
32365;SDS011;18837;46.832;16.838;2024-03-23T03:17:07;7.10;;;6.40;;
32365;SDS011;18837;46.832;16.838;2024-03-23T03:19:33;6.90;;;6.17;;
32365;SDS011;18837;46.832;16.838;2024-03-23T03:21:59;7.30;;;6.47;;
32365;SDS011;18837;46.832;16.838;2024-03-23T03:24:25;7.03;;;6.30;;
32365;SDS011;18837;46.832;16.838;2024-03-23T03:26:51;7.23;;;6.37;;
32365;SDS011;18837;46.832;16.838;2024-03-23T03:29:16;8.03;;;7.00;;
32365;SDS011;18837;46.832;16.838;2024-03-23T03:31:42;7.30;;;6.20;;
32365;SDS011;18837;46.832;16.838;2024-03-23T03:34:08;7.60;;;6.80;;
32365;SDS011;18837;46.832;16.838;2024-03-23T03:36:34;8.27;;;6.57;;
32365;SDS011;18837;46.832;16.838;2024-03-23T03:39:00;8.83;;;6.73;;
32365;SDS011;18837;46.832;16.838;2024-03-23T03:41:29;7.47;;;6.40;;
32365;SDS011;18837;46.832;16.838;2024-03-23T03:43:56;6.90;;;6.20;;
32365;SDS011;18837;46.832;16.838;2024-03-23T03:46:26;7.87;;;6.63;;
32365;SDS011;18837;46.832;16.838;2024-03-23T03:48:52;7.67;;;6.17;;
32365;SDS011;18837;46.832;16.838;2024-03-23T03:51:19;7.07;;;6.37;;
32365;SDS011;18837;46.832;16.838;2024-03-23T03:53:44;7.00;;;5.67;;
32365;SDS011;18837;46.832;16.838;2024-03-23T03:56:10;7.07;;;5.93;;
32365;SDS011;18837;46.832;16.838;2024-03-23T03:58:36;6.67;;;5.97;;
32365;SDS011;18837;46.832;16.838;2024-03-23T04:01:02;6.47;;;5.83;;
32365;SDS011;18837;46.832;16.838;2024-03-23T04:03:28;6.77;;;6.07;;
32365;SDS011;18837;46.832;16.838;2024-03-23T04:05:55;7.07;;;6.17;;
32365;SDS011;18837;46.832;16.838;2024-03-23T04:08:21;7.43;;;5.93;;
32365;SDS011;18837;46.832;16.838;2024-03-23T04:10:46;7.00;;;6.30;;
32365;SDS011;18837;46.832;16.838;2024-03-23T04:13:12;7.70;;;6.90;;
32365;SDS011;18837;46.832;16.838;2024-03-23T04:15:39;7.90;;;7.07;;
32365;SDS011;18837;46.832;16.838;2024-03-23T04:18:05;6.87;;;6.17;;
32365;SDS011;18837;46.832;16.838;2024-03-23T04:20:31;6.73;;;6.07;;
32365;SDS011;18837;46.832;16.838;2024-03-23T04:22:58;7.63;;;6.83;;
32365;SDS011;18837;46.832;16.838;2024-03-23T04:25:25;7.03;;;6.33;;
32365;SDS011;18837;46.832;16.838;2024-03-23T04:27:50;7.10;;;6.33;;
32365;SDS011;18837;46.832;16.838;2024-03-23T04:30:16;7.30;;;6.60;;
32365;SDS011;18837;46.832;16.838;2024-03-23T04:32:43;6.87;;;6.17;;
32365;SDS011;18837;46.832;16.838;2024-03-23T04:35:08;7.67;;;6.13;;
32365;SDS011;18837;46.832;16.838;2024-03-23T04:37:35;8.07;;;6.60;;
32365;SDS011;18837;46.832;16.838;2024-03-23T04:40:01;7.17;;;6.27;;
32365;SDS011;18837;46.832;16.838;2024-03-23T04:42:28;7.53;;;6.77;;
32365;SDS011;18837;46.832;16.838;2024-03-23T04:44:54;7.40;;;6.70;;
32365;SDS011;18837;46.832;16.838;2024-03-23T04:47:20;7.67;;;6.37;;
32365;SDS011;18837;46.832;16.838;2024-03-23T04:49:46;7.80;;;7.00;;
32365;SDS011;18837;46.832;16.838;2024-03-23T04:52:12;7.07;;;6.37;;
32365;SDS011;18837;46.832;16.838;2024-03-23T04:54:38;7.07;;;6.37;;
32365;SDS011;18837;46.832;16.838;2024-03-23T04:57:07;7.80;;;6.80;;
32365;SDS011;18837;46.832;16.838;2024-03-23T04:59:33;8.80;;;7.03;;
32365;SDS011;18837;46.832;16.838;2024-03-23T05:01:59;7.27;;;6.57;;
32365;SDS011;18837;46.832;16.838;2024-03-23T05:04:25;7.37;;;6.30;;
32365;SDS011;18837;46.832;16.838;2024-03-23T05:06:52;7.87;;;6.67;;
32365;SDS011;18837;46.832;16.838;2024-03-23T05:09:18;8.80;;;6.93;;
32365;SDS011;18837;46.832;16.838;2024-03-23T05:11:45;7.73;;;6.93;;
32365;SDS011;18837;46.832;16.838;2024-03-23T05:14:12;7.10;;;6.40;;
32365;SDS011;18837;46.832;16.838;2024-03-23T05:16:38;8.10;;;6.57;;
32365;SDS011;18837;46.832;16.838;2024-03-23T05:19:05;7.80;;;6.80;;
32365;SDS011;18837;46.832;16.838;2024-03-23T05:21:30;7.77;;;6.27;;
32365;SDS011;18837;46.832;16.838;2024-03-23T05:23:56;7.57;;;6.77;;
32365;SDS011;18837;46.832;16.838;2024-03-23T05:26:22;7.47;;;6.57;;
32365;SDS011;18837;46.832;16.838;2024-03-23T05:28:48;7.77;;;5.97;;
32365;SDS011;18837;46.832;16.838;2024-03-23T05:31:24;7.63;;;6.50;;
32365;SDS011;18837;46.832;16.838;2024-03-23T05:33:50;7.50;;;6.80;;
32365;SDS011;18837;46.832;16.838;2024-03-23T05:36:16;9.37;;;7.10;;
32365;SDS011;18837;46.832;16.838;2024-03-23T05:38:42;8.53;;;6.93;;
32365;SDS011;18837;46.832;16.838;2024-03-23T05:41:08;7.57;;;6.73;;
32365;SDS011;18837;46.832;16.838;2024-03-23T05:43:34;7.57;;;6.53;;
32365;SDS011;18837;46.832;16.838;2024-03-23T05:46:00;7.67;;;6.20;;
32365;SDS011;18837;46.832;16.838;2024-03-23T05:48:30;10.23;;;7.13;;
32365;SDS011;18837;46.832;16.838;2024-03-23T05:50:56;7.47;;;6.50;;
32365;SDS011;18837;46.832;16.838;2024-03-23T05:53:23;8.53;;;7.20;;
32365;SDS011;18837;46.832;16.838;2024-03-23T05:55:49;7.73;;;6.77;;
32365;SDS011;18837;46.832;16.838;2024-03-23T05:58:16;8.53;;;7.17;;
32365;SDS011;18837;46.832;16.838;2024-03-23T06:00:43;8.20;;;7.40;;
32365;SDS011;18837;46.832;16.838;2024-03-23T06:03:09;8.30;;;6.67;;
32365;SDS011;18837;46.832;16.838;2024-03-23T06:05:35;8.53;;;7.10;;
32365;SDS011;18837;46.832;16.838;2024-03-23T06:08:02;8.83;;;7.37;;
32365;SDS011;18837;46.832;16.838;2024-03-23T06:10:28;8.87;;;6.93;;
32365;SDS011;18837;46.832;16.838;2024-03-23T06:12:54;8.20;;;7.03;;
32365;SDS011;18837;46.832;16.838;2024-03-23T06:15:20;8.73;;;7.17;;
32365;SDS011;18837;46.832;16.838;2024-03-23T06:17:47;7.87;;;6.63;;
32365;SDS011;18837;46.832;16.838;2024-03-23T06:20:13;8.17;;;7.10;;
32365;SDS011;18837;46.832;16.838;2024-03-23T06:22:39;7.87;;;7.00;;
32365;SDS011;18837;46.832;16.838;2024-03-23T06:25:05;8.20;;;7.00;;
32365;SDS011;18837;46.832;16.838;2024-03-23T06:27:32;8.30;;;7.33;;
32365;SDS011;18837;46.832;16.838;2024-03-23T06:29:58;8.27;;;7.37;;
32365;SDS011;18837;46.832;16.838;2024-03-23T06:32:25;7.83;;;6.93;;
32365;SDS011;18837;46.832;16.838;2024-03-23T06:34:51;8.67;;;7.30;;
32365;SDS011;18837;46.832;16.838;2024-03-23T06:37:16;11.20;;;8.57;;
32365;SDS011;18837;46.832;16.838;2024-03-23T06:39:42;13.00;;;9.43;;
32365;SDS011;18837;46.832;16.838;2024-03-23T06:42:08;11.63;;;9.80;;
32365;SDS011;18837;46.832;16.838;2024-03-23T06:44:33;12.60;;;10.00;;
32365;SDS011;18837;46.832;16.838;2024-03-23T06:46:59;18.27;;;13.17;;
32365;SDS011;18837;46.832;16.838;2024-03-23T06:49:25;16.53;;;12.40;;
32365;SDS011;18837;46.832;16.838;2024-03-23T06:51:51;12.97;;;10.37;;
32365;SDS011;18837;46.832;16.838;2024-03-23T06:54:17;11.97;;;9.93;;
32365;SDS011;18837;46.832;16.838;2024-03-23T06:56:44;13.50;;;10.07;;
32365;SDS011;18837;46.832;16.838;2024-03-23T06:59:10;13.63;;;9.77;;
32365;SDS011;18837;46.832;16.838;2024-03-23T07:01:36;11.13;;;9.50;;
32365;SDS011;18837;46.832;16.838;2024-03-23T07:04:02;11.80;;;9.20;;
32365;SDS011;18837;46.832;16.838;2024-03-23T07:06:29;11.83;;;9.43;;
32365;SDS011;18837;46.832;16.838;2024-03-23T07:08:58;13.47;;;9.63;;
32365;SDS011;18837;46.832;16.838;2024-03-23T07:11:23;11.30;;;9.30;;
32365;SDS011;18837;46.832;16.838;2024-03-23T07:13:50;10.73;;;9.50;;
32365;SDS011;18837;46.832;16.838;2024-03-23T07:16:17;9.67;;;8.17;;
32365;SDS011;18837;46.832;16.838;2024-03-23T07:18:43;9.87;;;7.77;;
32365;SDS011;18837;46.832;16.838;2024-03-23T07:21:09;8.80;;;6.97;;
32365;SDS011;18837;46.832;16.838;2024-03-23T07:23:35;9.77;;;7.00;;
32365;SDS011;18837;46.832;16.838;2024-03-23T07:26:01;9.50;;;7.70;;
32365;SDS011;18837;46.832;16.838;2024-03-23T07:28:33;13.53;;;8.10;;
32365;SDS011;18837;46.832;16.838;2024-03-23T07:31:03;13.03;;;9.47;;
32365;SDS011;18837;46.832;16.838;2024-03-23T07:33:30;18.30;;;11.37;;
32365;SDS011;18837;46.832;16.838;2024-03-23T07:35:56;17.13;;;12.30;;
32365;SDS011;18837;46.832;16.838;2024-03-23T07:38:22;16.20;;;10.97;;
32365;SDS011;18837;46.832;16.838;2024-03-23T07:40:48;15.10;;;9.87;;
32365;SDS011;18837;46.832;16.838;2024-03-23T07:43:21;13.13;;;9.63;;
32365;SDS011;18837;46.832;16.838;2024-03-23T07:45:53;10.57;;;7.97;;
32365;SDS011;18837;46.832;16.838;2024-03-23T07:48:22;10.50;;;7.93;;
32365;SDS011;18837;46.832;16.838;2024-03-23T07:51:07;10.67;;;8.23;;
32365;SDS011;18837;46.832;16.838;2024-03-23T07:53:34;8.83;;;7.40;;
32365;SDS011;18837;46.832;16.838;2024-03-23T07:56:05;8.23;;;6.73;;
32365;SDS011;18837;46.832;16.838;2024-03-23T07:58:31;8.83;;;6.97;;
32365;SDS011;18837;46.832;16.838;2024-03-23T08:01:31;8.17;;;6.50;;
32365;SDS011;18837;46.832;16.838;2024-03-23T08:03:50;11.37;;;7.60;;
32365;SDS011;18837;46.832;16.838;2024-03-23T08:06:19;10.23;;;7.23;;
32365;SDS011;18837;46.832;16.838;2024-03-23T08:08:47;9.13;;;6.80;;
32365;SDS011;18837;46.832;16.838;2024-03-23T08:11:16;8.50;;;6.83;;
32365;SDS011;18837;46.832;16.838;2024-03-23T08:13:42;7.77;;;6.83;;
32365;SDS011;18837;46.832;16.838;2024-03-23T08:16:10;9.90;;;7.50;;
32365;SDS011;18837;46.832;16.838;2024-03-23T08:18:39;8.87;;;7.10;;
32365;SDS011;18837;46.832;16.838;2024-03-23T08:21:05;8.70;;;6.77;;
32365;SDS011;18837;46.832;16.838;2024-03-23T08:23:32;8.37;;;6.70;;
32365;SDS011;18837;46.832;16.838;2024-03-23T08:26:01;8.63;;;6.53;;
32365;SDS011;18837;46.832;16.838;2024-03-23T08:28:27;9.63;;;7.57;;
32365;SDS011;18837;46.832;16.838;2024-03-23T08:30:54;10.10;;;7.57;;
32365;SDS011;18837;46.832;16.838;2024-03-23T08:33:21;9.33;;;7.10;;
32365;SDS011;18837;46.832;16.838;2024-03-23T08:35:58;10.03;;;7.80;;
32365;SDS011;18837;46.832;16.838;2024-03-23T08:38:25;7.87;;;6.93;;
32365;SDS011;18837;46.832;16.838;2024-03-23T08:43:38;7.67;;;6.40;;
32365;SDS011;18837;46.832;16.838;2024-03-23T08:46:08;8.00;;;6.60;;
32365;SDS011;18837;46.832;16.838;2024-03-23T08:48:36;8.50;;;6.57;;
32365;SDS011;18837;46.832;16.838;2024-03-23T08:51:04;6.67;;;5.80;;
32365;SDS011;18837;46.832;16.838;2024-03-23T08:53:31;8.07;;;5.73;;
32365;SDS011;18837;46.832;16.838;2024-03-23T08:55:57;8.80;;;6.03;;
32365;SDS011;18837;46.832;16.838;2024-03-23T08:58:24;7.63;;;5.60;;
32365;SDS011;18837;46.832;16.838;2024-03-23T09:00:51;8.40;;;5.83;;
32365;SDS011;18837;46.832;16.838;2024-03-23T09:03:20;7.03;;;5.27;;
32365;SDS011;18837;46.832;16.838;2024-03-23T09:05:46;10.40;;;6.03;;
32365;SDS011;18837;46.832;16.838;2024-03-23T09:08:12;9.63;;;5.93;;
32365;SDS011;18837;46.832;16.838;2024-03-23T09:10:38;6.50;;;5.40;;
32365;SDS011;18837;46.832;16.838;2024-03-23T09:13:04;7.33;;;5.37;;
32365;SDS011;18837;46.832;16.838;2024-03-23T09:15:34;6.50;;;5.83;;
32365;SDS011;18837;46.832;16.838;2024-03-23T09:18:00;7.03;;;5.73;;
32365;SDS011;18837;46.832;16.838;2024-03-23T09:20:25;7.00;;;5.80;;
32365;SDS011;18837;46.832;16.838;2024-03-23T09:22:51;6.30;;;5.23;;
32365;SDS011;18837;46.832;16.838;2024-03-23T09:25:17;6.90;;;5.47;;
32365;SDS011;18837;46.832;16.838;2024-03-23T09:27:44;6.80;;;5.37;;
32365;SDS011;18837;46.832;16.838;2024-03-23T09:30:14;6.83;;;5.40;;
32365;SDS011;18837;46.832;16.838;2024-03-23T09:32:42;6.77;;;5.67;;
32365;SDS011;18837;46.832;16.838;2024-03-23T09:35:08;6.40;;;5.00;;
32365;SDS011;18837;46.832;16.838;2024-03-23T09:37:34;6.17;;;5.47;;
32365;SDS011;18837;46.832;16.838;2024-03-23T09:40:00;8.47;;;5.80;;
32365;SDS011;18837;46.832;16.838;2024-03-23T09:42:25;7.17;;;5.60;;
32365;SDS011;18837;46.832;16.838;2024-03-23T09:44:51;6.87;;;5.40;;
32365;SDS011;18837;46.832;16.838;2024-03-23T09:47:18;6.23;;;5.00;;
32365;SDS011;18837;46.832;16.838;2024-03-23T09:49:44;6.23;;;5.53;;
32365;SDS011;18837;46.832;16.838;2024-03-23T09:52:10;6.50;;;5.30;;
32365;SDS011;18837;46.832;16.838;2024-03-23T09:54:36;6.90;;;5.27;;
32365;SDS011;18837;46.832;16.838;2024-03-23T09:57:02;6.80;;;5.97;;
32365;SDS011;18837;46.832;16.838;2024-03-23T09:59:29;7.87;;;5.63;;
32365;SDS011;18837;46.832;16.838;2024-03-23T10:01:55;8.90;;;5.17;;
32365;SDS011;18837;46.832;16.838;2024-03-23T10:04:37;7.20;;;5.17;;
32365;SDS011;18837;46.832;16.838;2024-03-23T10:07:13;7.90;;;5.20;;
32365;SDS011;18837;46.832;16.838;2024-03-23T10:09:40;6.57;;;5.20;;
32365;SDS011;18837;46.832;16.838;2024-03-23T10:12:10;5.27;;;4.33;;
32365;SDS011;18837;46.832;16.838;2024-03-23T10:14:38;5.77;;;4.13;;
32365;SDS011;18837;46.832;16.838;2024-03-23T10:17:20;8.13;;;4.63;;
32365;SDS011;18837;46.832;16.838;2024-03-23T10:19:50;6.20;;;4.60;;
32365;SDS011;18837;46.832;16.838;2024-03-23T10:22:20;6.50;;;5.07;;
32365;SDS011;18837;46.832;16.838;2024-03-23T10:24:47;6.37;;;4.97;;
32365;SDS011;18837;46.832;16.838;2024-03-23T10:27:20;5.53;;;4.70;;
32365;SDS011;18837;46.832;16.838;2024-03-23T10:29:50;4.90;;;4.23;;
32365;SDS011;18837;46.832;16.838;2024-03-23T10:32:17;5.20;;;4.60;;
32365;SDS011;18837;46.832;16.838;2024-03-23T10:34:43;5.40;;;4.53;;
32365;SDS011;18837;46.832;16.838;2024-03-23T10:37:10;5.80;;;5.20;;
32365;SDS011;18837;46.832;16.838;2024-03-23T10:39:37;5.23;;;4.27;;
32365;SDS011;18837;46.832;16.838;2024-03-23T10:42:07;5.13;;;4.57;;
32365;SDS011;18837;46.832;16.838;2024-03-23T10:44:37;6.73;;;4.87;;
32365;SDS011;18837;46.832;16.838;2024-03-23T10:47:03;7.60;;;5.37;;
32365;SDS011;18837;46.832;16.838;2024-03-23T10:49:33;6.10;;;4.93;;
32365;SDS011;18837;46.832;16.838;2024-03-23T10:52:01;5.67;;;4.93;;
32365;SDS011;18837;46.832;16.838;2024-03-23T10:54:32;5.57;;;4.60;;
32365;SDS011;18837;46.832;16.838;2024-03-23T10:59:33;6.60;;;4.53;;
32365;SDS011;18837;46.832;16.838;2024-03-23T11:02:02;6.87;;;4.87;;
32365;SDS011;18837;46.832;16.838;2024-03-23T11:07:03;4.87;;;3.93;;
32365;SDS011;18837;46.832;16.838;2024-03-23T11:09:49;6.37;;;4.70;;
32365;SDS011;18837;46.832;16.838;2024-03-23T11:12:18;8.97;;;4.37;;
32365;SDS011;18837;46.832;16.838;2024-03-23T11:17:29;5.30;;;4.47;;
32365;SDS011;18837;46.832;16.838;2024-03-23T11:19:59;4.53;;;4.03;;
32365;SDS011;18837;46.832;16.838;2024-03-23T11:25:12;5.57;;;4.53;;
32365;SDS011;18837;46.832;16.838;2024-03-23T11:27:52;6.13;;;4.90;;
32365;SDS011;18837;46.832;16.838;2024-03-23T11:30:20;5.47;;;4.47;;
32365;SDS011;18837;46.832;16.838;2024-03-23T11:32:54;7.50;;;4.00;;
32365;SDS011;18837;46.832;16.838;2024-03-23T11:35:39;5.20;;;4.43;;
32365;SDS011;18837;46.832;16.838;2024-03-23T11:40:37;5.27;;;4.13;;
32365;SDS011;18837;46.832;16.838;2024-03-23T11:43:05;5.40;;;4.30;;
32365;SDS011;18837;46.832;16.838;2024-03-23T11:45:35;5.83;;;3.97;;
32365;SDS011;18837;46.832;16.838;2024-03-23T11:48:23;5.03;;;4.07;;
32365;SDS011;18837;46.832;16.838;2024-03-23T11:50:49;4.67;;;3.83;;
32365;SDS011;18837;46.832;16.838;2024-03-23T11:53:22;5.47;;;3.63;;
32365;SDS011;18837;46.832;16.838;2024-03-23T11:58:25;5.40;;;3.53;;
32365;SDS011;18837;46.832;16.838;2024-03-23T12:00:56;4.67;;;3.20;;
32365;SDS011;18837;46.832;16.838;2024-03-23T12:03:23;4.63;;;3.70;;
32365;SDS011;18837;46.832;16.838;2024-03-23T12:05:54;4.20;;;3.53;;
32365;SDS011;18837;46.832;16.838;2024-03-23T12:08:38;4.03;;;3.57;;
32365;SDS011;18837;46.832;16.838;2024-03-23T12:11:08;4.60;;;3.90;;
32365;SDS011;18837;46.832;16.838;2024-03-23T12:13:39;3.83;;;3.43;;
32365;SDS011;18837;46.832;16.838;2024-03-23T12:18:41;4.07;;;3.50;;
32365;SDS011;18837;46.832;16.838;2024-03-23T12:21:08;7.97;;;3.90;;
32365;SDS011;18837;46.832;16.838;2024-03-23T12:23:34;4.53;;;2.90;;
32365;SDS011;18837;46.832;16.838;2024-03-23T12:26:01;6.60;;;3.33;;
32365;SDS011;18837;46.832;16.838;2024-03-23T12:28:27;4.90;;;3.40;;
32365;SDS011;18837;46.832;16.838;2024-03-23T12:30:53;4.20;;;2.90;;
32365;SDS011;18837;46.832;16.838;2024-03-23T12:41:22;9.87;;;4.03;;
32365;SDS011;18837;46.832;16.838;2024-03-23T12:43:48;6.83;;;4.10;;
32365;SDS011;18837;46.832;16.838;2024-03-23T12:46:14;5.30;;;3.70;;
32365;SDS011;18837;46.832;16.838;2024-03-23T12:48:45;4.97;;;3.73;;
32365;SDS011;18837;46.832;16.838;2024-03-23T12:51:11;3.43;;;2.83;;
32365;SDS011;18837;46.832;16.838;2024-03-23T12:53:37;3.10;;;2.80;;
32365;SDS011;18837;46.832;16.838;2024-03-23T12:56:03;4.90;;;2.93;;
32365;SDS011;18837;46.832;16.838;2024-03-23T12:58:29;2.70;;;2.20;;
32365;SDS011;18837;46.832;16.838;2024-03-23T13:00:54;4.20;;;2.50;;
32365;SDS011;18837;46.832;16.838;2024-03-23T13:03:23;2.87;;;2.20;;
32365;SDS011;18837;46.832;16.838;2024-03-23T13:08:43;2.67;;;2.30;;
32365;SDS011;18837;46.832;16.838;2024-03-23T13:11:10;4.33;;;2.27;;
32365;SDS011;18837;46.832;16.838;2024-03-23T13:13:36;2.53;;;2.33;;
32365;SDS011;18837;46.832;16.838;2024-03-23T13:16:03;3.47;;;2.20;;
32365;SDS011;18837;46.832;16.838;2024-03-23T13:18:30;2.17;;;1.97;;
32365;SDS011;18837;46.832;16.838;2024-03-23T13:20:56;2.30;;;2.00;;
32365;SDS011;18837;46.832;16.838;2024-03-23T13:23:23;3.00;;;2.43;;
32365;SDS011;18837;46.832;16.838;2024-03-23T13:25:50;2.77;;;2.23;;
32365;SDS011;18837;46.832;16.838;2024-03-23T13:28:19;3.67;;;2.83;;
32365;SDS011;18837;46.832;16.838;2024-03-23T13:30:50;2.40;;;2.20;;
32365;SDS011;18837;46.832;16.838;2024-03-23T13:33:20;2.23;;;2.03;;
32365;SDS011;18837;46.832;16.838;2024-03-23T13:35:52;2.43;;;2.23;;
32365;SDS011;18837;46.832;16.838;2024-03-23T13:38:23;3.70;;;2.80;;
32365;SDS011;18837;46.832;16.838;2024-03-23T13:40:58;2.97;;;2.67;;
32365;SDS011;18837;46.832;16.838;2024-03-23T13:43:29;2.40;;;2.20;;
32365;SDS011;18837;46.832;16.838;2024-03-23T13:45:58;2.90;;;2.53;;
32365;SDS011;18837;46.832;16.838;2024-03-23T13:48:25;2.97;;;2.47;;
32365;SDS011;18837;46.832;16.838;2024-03-23T13:53:28;3.33;;;2.33;;
32365;SDS011;18837;46.832;16.838;2024-03-23T13:55:54;2.70;;;2.43;;
32365;SDS011;18837;46.832;16.838;2024-03-23T13:58:20;2.53;;;2.33;;
32365;SDS011;18837;46.832;16.838;2024-03-23T14:00:46;3.03;;;2.50;;
32365;SDS011;18837;46.832;16.838;2024-03-23T14:03:12;4.10;;;3.03;;
32365;SDS011;18837;46.832;16.838;2024-03-23T14:05:39;3.27;;;2.40;;
32365;SDS011;18837;46.832;16.838;2024-03-23T14:08:08;4.20;;;2.30;;
32365;SDS011;18837;46.832;16.838;2024-03-23T14:10:35;2.90;;;2.40;;
32365;SDS011;18837;46.832;16.838;2024-03-23T14:13:02;3.03;;;2.63;;
32365;SDS011;18837;46.832;16.838;2024-03-23T14:15:32;3.37;;;3.07;;
32365;SDS011;18837;46.832;16.838;2024-03-23T14:17:58;2.80;;;2.30;;
32365;SDS011;18837;46.832;16.838;2024-03-23T14:20:25;2.93;;;2.30;;
32365;SDS011;18837;46.832;16.838;2024-03-23T14:22:52;3.13;;;2.27;;
32365;SDS011;18837;46.832;16.838;2024-03-23T14:25:18;4.43;;;2.47;;
32365;SDS011;18837;46.832;16.838;2024-03-23T14:27:44;3.53;;;2.60;;
32365;SDS011;18837;46.832;16.838;2024-03-23T14:30:10;4.70;;;2.60;;
32365;SDS011;18837;46.832;16.838;2024-03-23T14:32:37;3.27;;;2.73;;
32365;SDS011;18837;46.832;16.838;2024-03-23T14:35:04;3.70;;;2.40;;
32365;SDS011;18837;46.832;16.838;2024-03-23T14:37:31;3.73;;;3.00;;
32365;SDS011;18837;46.832;16.838;2024-03-23T14:39:57;3.20;;;2.50;;
32365;SDS011;18837;46.832;16.838;2024-03-23T14:42:23;3.93;;;3.20;;
32365;SDS011;18837;46.832;16.838;2024-03-23T14:44:49;2.87;;;2.50;;
32365;SDS011;18837;46.832;16.838;2024-03-23T14:47:19;3.90;;;2.80;;
32365;SDS011;18837;46.832;16.838;2024-03-23T14:49:47;4.13;;;3.27;;
32365;SDS011;18837;46.832;16.838;2024-03-23T14:52:16;3.47;;;3.03;;
32365;SDS011;18837;46.832;16.838;2024-03-23T14:54:43;4.63;;;3.17;;
32365;SDS011;18837;46.832;16.838;2024-03-23T14:57:09;3.50;;;3.10;;
32365;SDS011;18837;46.832;16.838;2024-03-23T14:59:35;3.43;;;2.70;;
32365;SDS011;18837;46.832;16.838;2024-03-23T15:02:05;5.30;;;2.97;;
32365;SDS011;18837;46.832;16.838;2024-03-23T15:04:32;5.50;;;3.10;;
32365;SDS011;18837;46.832;16.838;2024-03-23T15:07:03;3.33;;;2.80;;
32365;SDS011;18837;46.832;16.838;2024-03-23T15:09:29;4.00;;;2.97;;
32365;SDS011;18837;46.832;16.838;2024-03-23T15:11:55;3.47;;;2.50;;
32365;SDS011;18837;46.832;16.838;2024-03-23T15:14:21;3.03;;;2.60;;
32365;SDS011;18837;46.832;16.838;2024-03-23T15:16:46;3.47;;;2.60;;
32365;SDS011;18837;46.832;16.838;2024-03-23T15:19:14;2.77;;;2.43;;
32365;SDS011;18837;46.832;16.838;2024-03-23T15:21:47;2.50;;;2.30;;
32365;SDS011;18837;46.832;16.838;2024-03-23T15:24:13;2.83;;;2.30;;
32365;SDS011;18837;46.832;16.838;2024-03-23T15:26:38;3.20;;;2.43;;
32365;SDS011;18837;46.832;16.838;2024-03-23T15:29:05;3.03;;;2.20;;
32365;SDS011;18837;46.832;16.838;2024-03-23T15:31:40;2.57;;;2.20;;
32365;SDS011;18837;46.832;16.838;2024-03-23T15:34:05;3.63;;;2.60;;
32365;SDS011;18837;46.832;16.838;2024-03-23T15:36:35;3.80;;;2.37;;
32365;SDS011;18837;46.832;16.838;2024-03-23T15:39:02;2.93;;;2.53;;
32365;SDS011;18837;46.832;16.838;2024-03-23T15:41:29;3.07;;;2.30;;
32365;SDS011;18837;46.832;16.838;2024-03-23T15:43:56;2.67;;;2.40;;
32365;SDS011;18837;46.832;16.838;2024-03-23T15:46:22;3.43;;;2.40;;
32365;SDS011;18837;46.832;16.838;2024-03-23T15:48:48;3.17;;;2.87;;
32365;SDS011;18837;46.832;16.838;2024-03-23T15:51:15;3.43;;;2.30;;
32365;SDS011;18837;46.832;16.838;2024-03-23T15:53:41;3.50;;;2.97;;
32365;SDS011;18837;46.832;16.838;2024-03-23T15:56:07;2.80;;;2.50;;
32365;SDS011;18837;46.832;16.838;2024-03-23T15:58:33;2.70;;;2.50;;
32365;SDS011;18837;46.832;16.838;2024-03-23T16:01:03;3.70;;;2.53;;
32365;SDS011;18837;46.832;16.838;2024-03-23T16:03:33;3.57;;;3.10;;